Time;durP1;ratioP1;P1;durP2;ratioP2;P2;SDS_P1;SDS_P2;PMS_P1;PMS_P2;Temp;Humidity;BMP_temperature;BMP_pressure;BME280_temperature;BME280_humidity;BME280_pressure;Samples;Min_cycle;Max_cycle;Signal;HPM_P1;HPM_P2
2022/01/05 00:01:47;;;;;;;8.03;2.03;;;;;;;2.68;100.00;100074.41;5031424;28;20029;-60
2022/01/05 00:04:12;;;;;;;7.20;2.13;;;;;;;2.63;100.00;100082.72;5023072;28;20030;-61
2022/01/05 00:06:37;;;;;;;9.30;2.17;;;;;;;2.61;100.00;100079.19;5019144;28;20625;-61
2022/01/05 00:09:03;;;;;;;13.40;2.57;;;;;;;2.59;100.00;100087.59;5031228;28;20486;-61
2022/01/05 00:11:28;;;;;;;12.30;2.40;;;;;;;2.55;100.00;100091.69;5024866;28;20033;-61
2022/01/05 00:13:56;;;;;;;12.37;3.17;;;;;;;2.49;100.00;100083.66;5031381;28;20366;-59
2022/01/05 00:16:21;;;;;;;10.17;2.97;;;;;;;2.47;100.00;100090.38;5025745;28;20029;-60
2022/01/05 00:18:46;;;;;;;13.87;2.30;;;;;;;2.43;100.00;100091.88;5029320;28;20120;-60
2022/01/05 00:21:12;;;;;;;7.90;2.10;;;;;;;2.40;100.00;100086.63;5031453;28;20025;-61
2022/01/05 00:23:37;;;;;;;10.97;1.60;;;;;;;2.39;100.00;100083.19;5030716;28;20549;-60
2022/01/05 00:26:04;;;;;;;7.63;1.40;;;;;;;2.40;100.00;100084.94;5044243;28;20716;-60
2022/01/05 00:28:30;;;;;;;7.33;2.50;;;;;;;2.38;100.00;100077.97;5044649;28;20056;-61
2022/01/05 00:30:55;;;;;;;9.33;1.83;;;;;;;2.37;100.00;100082.25;5045405;28;20500;-60
2022/01/05 00:33:20;;;;;;;6.87;1.80;;;;;;;2.35;100.00;100080.38;5044038;28;20035;-61
2022/01/05 00:35:46;;;;;;;7.97;2.23;;;;;;;2.33;100.00;100089.66;5050638;28;20028;-60
2022/01/05 00:38:11;;;;;;;11.73;2.13;;;;;;;2.28;100.00;100081.75;5043956;28;20024;-60
2022/01/05 00:40:36;;;;;;;11.63;2.77;;;;;;;2.26;100.00;100085.88;5047115;28;20036;-60
2022/01/05 00:43:02;;;;;;;11.67;2.30;;;;;;;2.23;100.00;100093.41;5045829;28;20464;-61
2022/01/05 00:45:27;;;;;;;10.27;2.10;;;;;;;2.21;100.00;100097.56;5046580;28;20461;-60
2022/01/05 00:47:53;;;;;;;6.13;1.87;;;;;;;2.18;100.00;100098.25;5043727;28;20033;-61
2022/01/05 00:50:18;;;;;;;8.63;2.27;;;;;;;2.14;100.00;100102.31;5048735;28;20025;-60
2022/01/05 00:52:43;;;;;;;9.00;1.80;;;;;;;2.12;100.00;100114.13;5049925;28;20025;-60
2022/01/05 00:55:09;;;;;;;11.07;2.00;;;;;;;2.08;100.00;100109.66;5043417;28;20497;-60
2022/01/05 00:57:34;;;;;;;15.47;2.37;;;;;;;2.09;100.00;100121.63;5050281;28;20099;-61
2022/01/05 00:59:59;;;;;;;10.30;2.10;;;;;;;2.05;100.00;100122.28;5050366;28;20025;-60
2022/01/05 01:02:25;;;;;;;11.47;1.80;;;;;;;2.03;100.00;100116.22;5044748;28;20033;-60
2022/01/05 01:04:50;;;;;;;10.00;2.37;;;;;;;2.00;100.00;100124.56;5050353;28;20108;-60
2022/01/05 01:07:15;;;;;;;9.83;2.13;;;;;;;1.97;100.00;100128.63;5043463;28;20128;-60
2022/01/05 01:09:41;;;;;;;10.00;2.27;;;;;;;1.93;100.00;100117.34;5050041;28;20025;-60
2022/01/05 01:12:07;;;;;;;5.67;1.70;;;;;;;1.87;100.00;100117.03;5044530;28;20400;-60
2022/01/05 01:14:32;;;;;;;8.53;2.27;;;;;;;1.84;100.00;100122.84;5042901;28;20021;-61
2022/01/05 01:16:57;;;;;;;9.60;2.40;;;;;;;1.82;100.00;100118.44;5049087;28;20075;-60
2022/01/05 01:19:23;;;;;;;10.13;2.37;;;;;;;1.80;100.00;100123.44;5048992;28;20100;-60
2022/01/05 01:21:48;;;;;;;10.50;2.33;;;;;;;1.76;100.00;100124.94;5049787;28;20028;-61
2022/01/05 01:24:14;;;;;;;8.33;2.40;;;;;;;1.75;100.00;100127.44;5049888;28;20056;-60
2022/01/05 01:26:39;;;;;;;9.07;2.47;;;;;;;1.71;100.00;100125.50;5027877;28;20041;-61
2022/01/05 01:29:04;;;;;;;10.67;2.23;;;;;;;1.68;100.00;100127.09;5026683;28;20036;-61
2022/01/05 01:31:30;;;;;;;12.93;2.40;;;;;;;1.62;100.00;100130.97;5022380;28;20064;-60
2022/01/05 01:33:56;;;;;;;11.27;2.73;;;;;;;1.62;100.00;100130.97;5027144;28;20038;-60
2022/01/05 01:36:22;;;;;;;8.43;2.30;;;;;;;1.59;100.00;100131.69;5025546;28;20017;-59
2022/01/05 01:38:47;;;;;;;14.80;2.93;;;;;;;1.59;100.00;100135.88;5026460;28;20038;-60
2022/01/05 01:41:12;;;;;;;11.57;2.13;;;;;;;1.54;100.00;100138.19;5023048;28;20029;-60
2022/01/05 01:43:38;;;;;;;15.70;3.20;;;;;;;1.54;100.00;100135.63;5022742;28;20482;-59
2022/01/05 01:46:05;;;;;;;11.63;2.90;;;;;;;1.51;100.00;100131.22;5029507;28;20096;-60
2022/01/05 01:48:31;;;;;;;10.23;2.50;;;;;;;1.48;100.00;100125.06;5029257;28;20382;-59
2022/01/05 01:50:56;;;;;;;12.03;2.60;;;;;;;1.46;100.00;100124.97;5022307;28;20095;-60
2022/01/05 01:53:22;;;;;;;8.50;2.60;;;;;;;1.46;100.00;100130.09;5021668;28;20489;-60
2022/01/05 01:55:49;;;;;;;9.20;2.47;;;;;;;1.43;100.00;100135.91;5029402;28;20025;-60
2022/01/05 01:58:15;;;;;;;10.97;2.77;;;;;;;1.38;100.00;100142.44;5023353;28;20021;-61
2022/01/05 02:00:41;;;;;;;12.67;2.60;;;;;;;1.41;100.00;100149.38;5023348;28;20025;-60
2022/01/05 02:03:06;;;;;;;14.30;3.00;;;;;;;1.37;100.00;100148.31;5015838;28;20036;-60
2022/01/05 02:05:31;;;;;;;7.40;2.00;;;;;;;1.37;100.00;100143.19;5025927;28;20422;-60
2022/01/05 02:07:57;;;;;;;10.27;2.77;;;;;;;1.34;100.00;100145.59;5029085;28;20112;-60
2022/01/05 02:10:22;;;;;;;7.20;2.03;;;;;;;1.29;100.00;100134.22;5021694;28;20104;-60
2022/01/05 02:12:50;;;;;;;13.33;2.30;;;;;;;1.29;100.00;100136.78;5029273;28;20028;-60
2022/01/05 02:15:16;;;;;;;10.30;2.50;;;;;;;1.28;100.00;100140.09;5029439;28;20527;-60
2022/01/05 02:20:36;;;;;;;8.87;2.00;;;;;;;1.24;100.00;100138.19;4987048;28;20041;-60
2022/01/05 02:23:01;;;;;;;8.80;2.40;;;;;;;1.22;100.00;100139.75;4986954;28;20439;-60
2022/01/05 02:25:27;;;;;;;10.93;1.93;;;;;;;1.19;100.00;100141.34;4996952;28;20044;-59
2022/01/05 02:27:55;;;;;;;9.50;2.00;;;;;;;1.17;100.00;100137.81;5028701;28;20032;-59
2022/01/05 02:30:23;;;;;;;8.27;1.83;;;;;;;1.19;100.00;100141.34;5030483;28;20545;-61
2022/01/05 02:32:49;;;;;;;21.30;4.80;;;;;;;1.17;100.00;100139.50;5030378;28;20068;-59
2022/01/05 02:35:14;;;;;;;10.10;2.10;;;;;;;1.16;99.19;100145.38;5029795;28;20166;-58
2022/01/05 02:37:45;;;;;;;8.90;2.20;;;;;;;1.17;98.46;100147.16;5026862;28;20045;-60
2022/01/05 02:40:13;;;;;;;12.80;2.20;;;;;;;1.18;98.38;100149.81;5041310;28;20037;-59
2022/01/05 02:42:39;;;;;;;7.63;1.73;;;;;;;1.19;98.80;100151.56;5023288;28;20029;-60
2022/01/05 02:45:05;;;;;;;9.23;2.00;;;;;;;1.17;98.67;100154.81;5030119;28;20080;-60
2022/01/05 02:47:30;;;;;;;10.07;2.07;;;;;;;1.14;99.04;100158.06;5030128;28;20409;-60
2022/01/05 02:49:59;;;;;;;9.40;2.20;;;;;;;1.10;98.92;100161.22;5025796;28;20114;-60
2022/01/05 02:52:25;;;;;;;10.40;2.10;;;;;;;1.11;99.67;100167.19;5030168;28;20052;-60
2022/01/05 02:54:50;;;;;;;11.97;2.43;;;;;;;1.04;99.11;100163.41;5022967;28;20041;-60
2022/01/05 02:57:16;;;;;;;6.67;1.97;;;;;;;1.01;99.18;100165.78;5030751;28;20029;-59
2022/01/05 02:59:41;;;;;;;10.70;2.70;;;;;;;0.99;99.67;100177.56;5042814;28;20478;-60
2022/01/05 03:02:07;;;;;;;10.53;2.43;;;;;;;0.97;99.60;100174.03;5051216;28;20131;-59
2022/01/05 03:04:32;;;;;;;10.00;2.10;;;;;;;0.94;99.82;100180.72;5052364;28;20033;-59
2022/01/05 03:06:58;;;;;;;10.53;2.20;;;;;;;0.93;100.00;100185.72;5044214;28;20026;-60
2022/01/05 03:09:23;;;;;;;7.33;2.00;;;;;;;0.90;100.00;100183.84;5048516;28;20036;-59
2022/01/05 03:11:48;;;;;;;10.63;1.97;;;;;;;0.87;100.00;100177.69;5052175;28;20034;-60
2022/01/05 03:14:13;;;;;;;8.40;2.17;;;;;;;0.82;100.00;100187.63;5052540;28;20492;-60
2022/01/05 03:16:39;;;;;;;7.17;2.13;;;;;;;0.80;100.00;100194.28;5052120;28;20033;-60
2022/01/05 03:19:04;;;;;;;10.57;1.70;;;;;;;0.76;100.00;100198.31;5052068;28;20404;-60
2022/01/05 03:21:29;;;;;;;8.13;2.50;;;;;;;0.72;100.00;100204.00;5049366;28;20484;-60
2022/01/05 03:23:55;;;;;;;8.10;2.07;;;;;;;0.69;100.00;100208.94;5041461;28;20033;-60
2022/01/05 03:26:20;;;;;;;12.07;2.30;;;;;;;0.68;100.00;100218.28;5047124;28;20045;-60
2022/01/05 03:28:45;;;;;;;8.80;2.40;;;;;;;0.67;100.00;100210.50;5051977;28;20091;-59
2022/01/05 03:31:11;;;;;;;11.33;2.20;;;;;;;0.67;100.00;100216.50;5052062;28;20400;-60
2022/01/05 03:33:36;;;;;;;7.40;2.00;;;;;;;0.65;100.00;100212.97;5052178;28;20033;-60
2022/01/05 03:36:02;;;;;;;13.73;2.53;;;;;;;0.64;100.00;100217.97;5051950;28;20485;-60
2022/01/05 03:38:29;;;;;;;15.07;2.10;;;;;;;0.64;100.00;100217.97;5051063;28;20029;-60
2022/01/05 03:40:55;;;;;;;9.83;1.90;;;;;;;0.62;100.00;100222.97;5043793;28;20483;-60
2022/01/05 03:43:20;;;;;;;14.33;2.40;;;;;;;0.61;100.00;100223.78;5045972;28;20041;-60
2022/01/05 03:45:47;;;;;;;9.93;2.60;;;;;;;0.61;100.00;100221.22;5044582;28;20029;-61
2022/01/05 03:48:16;;;;;;;8.37;2.27;;;;;;;0.62;100.00;100228.09;5051606;28;20025;-58
2022/01/05 03:50:41;;;;;;;10.80;2.27;;;;;;;0.60;100.00;100229.66;5037734;28;20087;-59
2022/01/05 03:53:08;;;;;;;11.53;2.50;;;;;;;0.59;100.00;100228.75;5051537;28;20033;-60
2022/01/05 03:55:35;;;;;;;10.90;2.73;;;;;;;0.60;100.00;100234.75;5043614;28;20032;-58
2022/01/05 03:58:01;;;;;;;11.57;2.27;;;;;;;0.58;100.00;100232.13;5051335;28;20043;-60
2022/01/05 04:00:29;;;;;;;9.20;2.53;;;;;;;0.55;100.00;100228.47;5048065;28;20292;-60
2022/01/05 04:02:55;;;;;;;6.77;2.07;;;;;;;0.53;100.00;100224.94;5051367;28;20035;-59
2022/01/05 04:05:21;;;;;;;7.43;2.30;;;;;;;0.52;100.00;100225.75;5051235;28;20028;-60
2022/01/05 04:07:46;;;;;;;11.00;2.33;;;;;;;0.53;100.00;100232.59;5051006;28;20428;-60
2022/01/05 04:10:11;;;;;;;10.23;2.27;;;;;;;0.52;100.00;100231.72;5045489;28;20505;-58
2022/01/05 04:12:37;;;;;;;11.33;2.10;;;;;;;0.54;100.00;100229.28;5051134;28;20031;-60
2022/01/05 04:15:03;;;;;;;7.80;2.10;;;;;;;0.56;100.00;100240.44;5051072;28;20485;-59
2022/01/05 04:17:28;;;;;;;10.63;2.33;;;;;;;0.56;100.00;100235.34;5046298;28;20021;-59
2022/01/05 04:19:54;;;;;;;13.27;2.80;;;;;;;0.54;100.00;100239.47;5050940;28;20245;-59
2022/01/05 04:22:19;;;;;;;5.63;1.77;;;;;;;0.53;100.00;100238.59;5051002;28;20548;-59
2022/01/05 04:24:44;;;;;;;10.83;2.00;;;;;;;0.50;100.00;100238.41;5044389;28;20486;-60
2022/01/05 04:27:10;;;;;;;6.67;1.90;;;;;;;0.50;100.00;100237.53;5024092;28;20075;-59
2022/01/05 04:29:35;;;;;;;10.20;2.20;;;;;;;0.51;100.00;100244.38;5031039;28;20311;-60
2022/01/05 04:32:01;;;;;;;11.20;2.77;;;;;;;0.47;99.17;100246.72;5030884;28;20025;-60
2022/01/05 04:34:26;;;;;;;15.33;2.93;;;;;;;0.47;99.26;100249.28;5025901;28;20489;-59
2022/01/05 04:36:52;;;;;;;11.00;2.70;;;;;;;0.50;99.54;100255.38;5030807;28;20034;-59
2022/01/05 04:39:17;;;;;;;10.23;2.57;;;;;;;0.48;99.65;100245.06;5029451;28;20445;-60
2022/01/05 04:41:42;;;;;;;12.60;2.53;;;;;;;0.50;100.00;100252.81;5023629;28;20030;-60
2022/01/05 04:44:08;;;;;;;12.00;2.27;;;;;;;0.51;100.00;100257.13;5030811;28;20037;-60
2022/01/05 04:46:33;;;;;;;17.60;2.40;;;;;;;0.50;100.00;100274.09;5030652;28;20076;-60
2022/01/05 04:48:58;;;;;;;8.87;2.57;;;;;;;0.50;100.00;100268.13;5012506;28;20087;-58
2022/01/05 04:51:24;;;;;;;13.33;2.47;;;;;;;0.50;100.00;100263.03;5022290;28;20363;-57
2022/01/05 04:53:51;;;;;;;12.27;2.50;;;;;;;0.51;100.00;100264.75;5022919;28;20338;-59
2022/01/05 04:56:16;;;;;;;11.30;2.90;;;;;;;0.51;100.00;100265.66;5025394;28;20037;-58
2022/01/05 04:58:41;;;;;;;13.37;2.60;;;;;;;0.53;100.00;100269.19;5030202;28;20061;-60
2022/01/05 05:01:07;;;;;;;13.03;3.13;;;;;;;0.55;100.00;100259.97;5030377;28;20029;-60
2022/01/05 05:03:32;;;;;;;13.70;3.63;;;;;;;0.57;100.00;100266.06;5030131;28;20060;-60
2022/01/05 05:05:57;;;;;;;11.53;2.80;;;;;;;0.62;100.00;100270.56;5023675;28;20029;-60
2022/01/05 05:08:23;;;;;;;13.33;2.90;;;;;;;0.66;100.00;100264.88;5030047;28;20053;-60
2022/01/05 05:10:48;;;;;;;18.00;3.07;;;;;;;0.69;100.00;100263.41;5023903;28;20077;-58
2022/01/05 05:13:13;;;;;;;15.57;2.60;;;;;;;0.75;100.00;100274.75;5029894;28;20153;-60
2022/01/05 05:15:40;;;;;;;12.47;2.80;;;;;;;0.79;100.00;100281.84;5029844;28;20095;-60
2022/01/05 05:18:06;;;;;;;12.27;2.67;;;;;;;0.82;100.00;100282.91;5023403;28;20041;-59
2022/01/05 05:20:32;;;;;;;15.37;3.00;;;;;;;0.86;100.00;100283.09;5030012;28;20065;-59
2022/01/05 05:22:58;;;;;;;12.67;2.27;;;;;;;0.87;100.00;100278.09;5030045;28;20025;-59
2022/01/05 05:25:24;;;;;;;19.63;4.00;;;;;;;0.89;100.00;100279.06;5028883;28;20060;-60
2022/01/05 05:27:49;;;;;;;13.80;3.37;;;;;;;0.92;100.00;100270.69;5025646;28;20474;-59
2022/01/05 05:30:14;;;;;;;15.37;3.30;;;;;;;0.93;100.00;100278.47;5023785;28;20060;-59
2022/01/05 05:32:40;;;;;;;12.50;2.47;;;;;;;0.95;100.00;100273.47;5030127;28;20040;-59
2022/01/05 05:35:06;;;;;;;11.90;2.60;;;;;;;0.94;100.00;100270.03;5029684;28;20041;-58
2022/01/05 05:37:31;;;;;;;9.67;2.87;;;;;;;0.95;100.00;100273.47;5023435;28;20097;-60
2022/01/05 05:39:57;;;;;;;13.93;2.73;;;;;;;0.97;100.00;100271.91;5024871;28;20553;-60
2022/01/05 05:42:22;;;;;;;12.87;3.03;;;;;;;0.97;100.00;100271.91;5029244;28;20036;-60
2022/01/05 05:44:48;;;;;;;11.47;2.50;;;;;;;0.98;100.00;100270.22;5028716;28;20037;-59
2022/01/05 05:47:13;;;;;;;12.13;2.77;;;;;;;0.98;100.00;100280.41;5029547;28;20474;-59
2022/01/05 05:49:38;;;;;;;13.43;3.70;;;;;;;0.98;100.00;100283.84;5029345;28;20036;-59
2022/01/05 05:52:04;;;;;;;13.47;3.13;;;;;;;1.01;100.00;100293.38;5011746;28;20257;-59
2022/01/05 05:54:30;;;;;;;10.33;2.73;;;;;;;1.00;100.00;100286.50;5016362;28;20416;-60
2022/01/05 05:56:55;;;;;;;13.47;2.67;;;;;;;0.99;100.00;100295.81;5020753;28;20052;-59
2022/01/05 05:59:21;;;;;;;10.60;2.33;;;;;;;1.00;100.00;100291.59;5029450;28;20385;-60
2022/01/05 06:01:46;;;;;;;8.87;2.43;;;;;;;1.00;100.00;100294.16;5022184;28;20040;-60
2022/01/05 06:04:11;;;;;;;12.30;2.70;;;;;;;0.98;100.00;100288.97;5026824;28;20033;-61
2022/01/05 06:06:37;;;;;;;13.67;3.13;;;;;;;1.01;100.00;100304.44;5029289;28;20025;-61
2022/01/05 06:09:02;;;;;;;14.40;2.83;;;;;;;0.99;100.00;100300.91;5029324;28;20429;-61
2022/01/05 06:11:28;;;;;;;10.67;2.67;;;;;;;0.99;100.00;100297.50;5022119;28;20025;-59
2022/01/05 06:13:54;;;;;;;13.97;2.80;;;;;;;0.99;100.00;100302.63;5027824;28;20029;-60
2022/01/05 06:16:20;;;;;;;13.70;2.90;;;;;;;0.97;100.00;100301.63;5029266;28;20040;-60
2022/01/05 06:18:45;;;;;;;14.57;2.80;;;;;;;0.94;100.00;100300.66;5029028;28;20037;-60
2022/01/05 06:21:11;;;;;;;20.77;3.53;;;;;;;0.92;100.00;100294.56;5029039;28;20123;-60
2022/01/05 06:23:36;;;;;;;22.23;4.00;;;;;;;0.88;100.00;100297.69;5022909;28;20029;-60
2022/01/05 06:26:02;;;;;;;11.90;2.90;;;;;;;0.86;100.00;100301.84;5017752;28;20049;-61
2022/01/05 06:28:27;;;;;;;11.77;2.90;;;;;;;0.86;100.00;100309.50;5028812;28;20589;-61
2022/01/05 06:30:53;;;;;;;13.63;2.87;;;;;;;0.85;100.00;100305.16;5015157;28;20026;-60
2022/01/05 06:33:18;;;;;;;11.53;2.77;;;;;;;0.85;100.00;100306.84;5023124;28;20060;-61
2022/01/05 06:35:43;;;;;;;10.20;2.87;;;;;;;0.83;100.00;100312.72;5024991;28;20178;-59
2022/01/05 06:38:09;;;;;;;16.27;3.07;;;;;;;0.82;100.00;100315.19;5025605;28;20470;-60
2022/01/05 06:40:35;;;;;;;15.13;3.00;;;;;;;0.81;100.00;100326.19;5027223;28;20087;-60
2022/01/05 06:43:01;;;;;;;15.83;3.90;;;;;;;0.82;100.00;100331.38;5002757;28;20037;-59
2022/01/05 06:45:27;;;;;;;23.07;4.80;;;;;;;0.84;100.00;100326.38;5028723;28;20037;-60
2022/01/05 06:47:52;;;;;;;14.43;3.00;;;;;;;0.81;100.00;100336.41;5016096;28;20036;-59
2022/01/05 06:50:18;;;;;;;12.60;3.07;;;;;;;0.85;100.00;100323.03;5028972;28;20034;-59
2022/01/05 06:52:44;;;;;;;10.90;3.40;;;;;;;0.85;100.00;100323.03;5016295;28;20057;-60
2022/01/05 06:55:09;;;;;;;9.93;2.77;;;;;;;0.86;100.00;100324.81;5023154;28;20029;-60
2022/01/05 06:57:37;;;;;;;14.60;3.50;;;;;;;0.88;100.00;100333.41;5024916;28;20029;-60
2022/01/05 07:00:04;;;;;;;15.70;3.20;;;;;;;0.89;100.00;100334.31;5025759;28;20025;-60
2022/01/05 07:02:29;;;;;;;13.17;3.00;;;;;;;0.92;100.00;100337.03;5022165;28;20088;-60
2022/01/05 07:04:55;;;;;;;19.27;3.57;;;;;;;0.91;100.00;100341.28;5020650;28;20033;-60
2022/01/05 07:07:20;;;;;;;13.73;3.90;;;;;;;0.95;100.00;100347.47;5021719;28;20064;-60
2022/01/05 07:09:45;;;;;;;24.30;5.70;;;;;;;0.96;100.00;100344.13;5027879;28;20226;-58
2022/01/05 07:12:11;;;;;;;14.97;3.80;;;;;;;0.98;100.00;100357.88;5023901;28;20033;-60
2022/01/05 07:14:36;;;;;;;12.73;3.03;;;;;;;0.99;100.00;100346.00;5031670;28;20043;-61
2022/01/05 07:17:02;;;;;;;15.67;4.57;;;;;;;1.00;100.00;100347.75;5019240;28;20466;-61
2022/01/05 07:19:27;;;;;;;13.60;3.33;;;;;;;1.00;100.00;100355.41;5032378;28;20276;-59
2022/01/05 07:21:53;;;;;;;12.80;3.23;;;;;;;1.01;100.00;100352.09;5032139;28;20051;-61
2022/01/05 07:24:19;;;;;;;11.80;3.10;;;;;;;1.01;100.00;100360.59;5031334;28;20064;-60
2022/01/05 07:26:46;;;;;;;16.77;2.93;;;;;;;1.03;100.00;100368.34;5037292;28;20052;-61
2022/01/05 07:29:15;;;;;;;11.67;2.90;;;;;;;1.04;100.00;100370.13;5036698;28;20120;-60
2022/01/05 07:31:41;;;;;;;19.47;3.50;;;;;;;1.05;100.00;100367.69;5051735;28;20017;-61
2022/01/05 07:34:07;;;;;;;12.27;3.93;;;;;;;1.07;100.00;100370.31;5051495;28;20083;-59
2022/01/05 07:36:33;;;;;;;12.63;3.20;;;;;;;1.10;100.00;100384.97;5051547;28;20028;-62
2022/01/05 07:38:59;;;;;;;12.43;2.87;;;;;;;1.12;100.00;100371.50;5027628;28;20476;-61
2022/01/05 07:41:25;;;;;;;13.93;3.70;;;;;;;1.16;100.00;100375.13;5050131;28;20027;-60
2022/01/05 07:43:51;;;;;;;13.03;2.53;;;;;;;1.21;100.00;100383.09;5044110;28;20465;-59
2022/01/05 07:46:17;;;;;;;11.57;2.87;;;;;;;1.23;100.00;100389.16;5047613;28;20064;-60
2022/01/05 07:48:43;;;;;;;13.83;2.60;;;;;;;1.27;100.00;100386.00;5045073;28;20035;-59
2022/01/05 07:51:08;;;;;;;15.90;4.07;;;;;;;1.30;100.00;100388.75;5051691;28;20461;-58
2022/01/05 07:53:33;;;;;;;16.97;3.77;;;;;;;1.33;100.00;100394.06;5051493;28;20104;-59
2022/01/05 07:55:58;;;;;;;14.23;3.53;;;;;;;1.37;100.00;100392.59;5048098;28;20057;-60
2022/01/05 07:58:26;;;;;;;14.50;3.00;;;;;;;1.42;100.00;100401.41;5051145;28;20096;-60
2022/01/05 08:00:51;;;;;;;9.10;3.00;;;;;;;1.46;100.00;100394.81;5051138;28;20112;-60
2022/01/05 08:03:16;;;;;;;12.33;2.90;;;;;;;1.50;100.00;100396.75;5051355;28;20047;-60
2022/01/05 08:05:42;;;;;;;11.97;2.73;;;;;;;1.56;100.00;100408.22;5049593;28;20048;-59
2022/01/05 08:08:07;;;;;;;12.20;3.20;;;;;;;1.63;100.00;100408.63;5044619;28;20451;-60
2022/01/05 08:10:32;;;;;;;12.50;3.23;;;;;;;1.71;100.00;100421.88;5051226;28;20032;-61
2022/01/05 08:12:58;;;;;;;14.43;2.90;;;;;;;1.77;100.00;100427.34;5044362;28;20033;-61
2022/01/05 08:15:23;;;;;;;12.57;2.87;;;;;;;1.82;100.00;100425.94;5044944;28;20025;-60
2022/01/05 08:17:48;;;;;;;14.63;3.20;;;;;;;1.86;100.00;100425.34;5051139;28;20295;-61
2022/01/05 08:20:14;;;;;;;9.80;3.50;;;;;;;1.92;100.00;100432.53;5050625;28;20257;-61
2022/01/05 08:22:44;;;;;;;14.93;3.37;;;;;;;1.97;100.00;100432.78;5038428;28;20397;-59
2022/01/05 08:25:10;;;;;;;15.50;2.90;;;;;;;1.98;100.00;100422.66;5046128;28;20056;-61
2022/01/05 08:27:37;;;;;;;11.23;2.90;;;;;;;2.01;100.00;100433.09;5030869;28;20441;-60
2022/01/05 08:30:05;;;;;;;9.27;2.53;;;;;;;2.03;100.00;100434.03;5030720;28;20092;-61
2022/01/05 08:32:32;;;;;;;13.20;3.00;;;;;;;2.08;100.00;100433.44;5030875;28;20296;-61
2022/01/05 08:34:58;;;;;;;12.17;2.90;;;;;;;2.10;100.00;100442.97;5024397;28;20477;-60
2022/01/05 08:37:24;;;;;;;13.43;2.60;;;;;;;2.14;100.00;100426.16;5030598;28;20021;-61
2022/01/05 08:39:51;;;;;;;19.47;3.10;;;;;;;2.20;100.00;100429.06;5018007;28;20085;-61
2022/01/05 08:42:16;;;;;;;16.70;3.20;;;;;;;2.24;100.00;100432.69;4999225;28;20106;-61
2022/01/05 08:44:42;;;;;;;12.90;2.27;;;;;;;2.30;100.00;100439.84;5002721;28;20141;-60
2022/01/05 08:47:08;;;;;;;9.50;2.50;;;;;;;2.35;100.00;100443.53;5014928;28;20041;-60
2022/01/05 08:49:34;;;;;;;13.03;3.37;;;;;;;2.45;100.00;100445.84;5012480;28;20041;-61
2022/01/05 08:51:59;;;;;;;16.50;3.53;;;;;;;2.53;100.00;100438.63;5012860;28;20504;-61
2022/01/05 08:54:25;;;;;;;11.60;2.83;;;;;;;2.60;100.00;100434.75;5013399;28;20024;-61
2022/01/05 08:56:51;;;;;;;11.50;3.00;;;;;;;2.63;100.00;100435.81;5014068;28;20367;-60
2022/01/05 08:59:16;;;;;;;10.73;2.43;;;;;;;2.65;100.00;100428.22;5016145;28;20025;-60
2022/01/05 09:01:43;;;;;;;12.40;3.70;;;;;;;2.68;100.00;100440.31;5011660;28;20374;-60
2022/01/05 09:04:09;;;;;;;10.37;2.53;;;;;;;2.74;100.00;100445.78;5012590;28;20113;-60
2022/01/05 09:06:34;;;;;;;13.87;3.50;;;;;;;2.84;100.00;100448.06;5014336;28;20172;-61
2022/01/05 09:09:00;;;;;;;10.37;2.80;;;;;;;2.96;100.00;100442.78;5014404;28;20029;-60
2022/01/05 09:11:27;;;;;;;15.87;3.00;;;;;;;3.05;100.00;100446.63;5013960;28;20470;-61
2022/01/05 09:13:52;;;;;;;15.93;2.77;;;;;;;3.12;100.00;100452.22;5013022;28;20091;-60
2022/01/05 09:16:18;;;;;;;16.57;3.23;;;;;;;3.15;99.50;100455.75;5012930;28;20018;-60
2022/01/05 09:18:44;;;;;;;12.67;2.53;;;;;;;3.16;100.00;100458.38;5015206;28;20030;-60
2022/01/05 09:21:09;;;;;;;13.50;2.70;;;;;;;3.17;100.00;100459.25;5014676;28;20025;-60
2022/01/05 09:23:34;;;;;;;13.33;2.83;;;;;;;3.15;100.00;100456.59;5013933;28;20022;-61
2022/01/05 09:26:00;;;;;;;13.13;3.00;;;;;;;3.11;100.00;100458.09;5023554;28;20128;-62
2022/01/05 09:28:26;;;;;;;9.70;2.43;;;;;;;3.09;100.00;100466.50;5032381;28;20366;-61
2022/01/05 09:30:52;;;;;;;11.40;2.57;;;;;;;3.12;100.00;100469.25;5032944;28;20442;-61
2022/01/05 09:33:17;;;;;;;13.63;3.00;;;;;;;3.11;100.00;100476.03;5034807;28;20489;-60
2022/01/05 09:35:44;;;;;;;10.37;2.77;;;;;;;3.16;100.00;100481.44;5031544;28;20091;-60
2022/01/05 09:38:22;;;;;;;12.17;3.00;;;;;;;3.18;100.00;100482.41;5031144;28;20028;-61
2022/01/05 09:43:48;;;;;;;12.63;2.23;;;;;;;3.20;100.00;100492.72;5033643;28;20167;-61
2022/01/05 09:46:29;;;;;;;11.87;2.83;;;;;;;3.21;100.00;100497.94;5032786;28;20087;-60
2022/01/05 09:49:31;;;;;;;14.98;2.60;;;;;;;3.23;100.00;100498.91;5032182;28;20490;-61
2022/01/05 09:52:03;;;;;;;14.20;2.80;;;;;;;3.24;100.00;100507.44;5028075;28;20079;-62
2022/01/05 09:54:29;;;;;;;13.50;3.00;;;;;;;3.23;100.00;100506.59;5029765;28;20116;-61
2022/01/05 09:56:55;;;;;;;14.70;2.53;;;;;;;3.22;100.00;100509.06;5032808;28;20104;-61
2022/01/05 09:59:21;;;;;;;12.47;3.17;;;;;;;3.21;100.00;100502.16;5031956;28;20067;-61
2022/01/05 10:01:46;;;;;;;13.27;3.23;;;;;;;3.20;100.00;100514.09;5034819;28;20033;-61
2022/01/05 10:04:14;;;;;;;11.63;2.83;;;;;;;3.22;100.00;100515.06;5033712;28;20112;-62
2022/01/05 10:06:39;;;;;;;16.63;2.80;;;;;;;3.24;100.00;100520.25;5029148;28;20024;-62
2022/01/05 10:09:05;;;;;;;16.37;3.30;;;;;;;3.21;100.00;100508.19;5032508;28;20374;-61
2022/01/05 10:11:31;;;;;;;10.50;2.30;;;;;;;3.24;100.00;100508.34;5032191;28;20359;-60
2022/01/05 10:13:56;;;;;;;14.70;3.03;;;;;;;3.27;100.00;100511.88;5033147;28;20116;-61
2022/01/05 10:16:21;;;;;;;12.10;2.70;;;;;;;3.29;100.00;100497.50;5032514;28;20349;-59
2022/01/05 10:18:47;;;;;;;11.03;2.70;;;;;;;3.32;100.00;100513.91;5031268;28;20021;-60
2022/01/05 10:21:14;;;;;;;14.63;2.90;;;;;;;3.35;100.00;100519.19;5032733;28;20033;-60
2022/01/05 10:23:42;;;;;;;13.33;3.20;;;;;;;3.40;100.00;100527.13;5032130;28;20488;-60
2022/01/05 10:26:24;;;;;;;16.07;3.00;;;;;;;3.46;100.00;100517.25;5034332;28;20181;-60
2022/01/05 10:28:58;;;;;;;13.23;2.50;;;;;;;3.55;100.00;100524.56;5030572;28;20060;-60
2022/01/05 10:31:38;;;;;;;15.47;2.53;;;;;;;3.67;100.00;100518.34;5030825;28;20026;-60
2022/01/05 10:34:27;;;;;;;11.37;2.47;;;;;;;3.74;100.00;100515.34;5031514;28;20040;-60
2022/01/05 10:36:58;;;;;;;11.67;1.90;;;;;;;3.78;100.00;100534.34;5036419;28;20024;-59
2022/01/05 10:39:29;;;;;;;12.15;3.40;;;;;;;3.82;100.00;100528.56;5043434;28;20029;-60
2022/01/05 10:41:55;;;;;;;14.77;3.67;;;;;;;3.83;100.00;100523.50;5048647;28;20092;-60
2022/01/05 10:44:22;;;;;;;14.20;2.43;;;;;;;3.86;99.96;100525.38;5048667;28;20187;-59
2022/01/05 10:46:47;;;;;;;9.67;2.40;;;;;;;3.94;100.00;100518.09;5048416;28;20028;-60
2022/01/05 10:49:30;;;;;;;10.90;2.50;;;;;;;4.01;99.39;100540.69;5051573;28;20021;-59
2022/01/05 10:51:57;;;;;;;14.43;2.53;;;;;;;4.10;98.83;100545.44;5045483;28;20032;-60
2022/01/05 10:54:26;;;;;;;14.67;2.80;;;;;;;4.19;99.34;100540.78;5051464;28;20047;-59
2022/01/05 10:56:52;;;;;;;14.43;2.90;;;;;;;4.29;98.71;100552.44;5052513;28;20476;-59
2022/01/05 10:59:34;;;;;;;11.00;2.40;;;;;;;4.43;99.13;100552.28;5045907;28;20036;-61
2022/01/05 11:01:59;;;;;;;16.57;2.43;;;;;;;4.59;98.84;100571.91;5052164;28;20378;-59
2022/01/05 11:04:25;;;;;;;10.23;2.67;;;;;;;4.68;98.09;100561.25;5042621;28;20029;-60
2022/01/05 11:06:58;;;;;;;13.83;3.07;;;;;;;4.75;96.60;100568.47;5052500;28;20032;-60
2022/01/05 11:09:23;;;;;;;9.93;2.60;;;;;;;4.77;94.94;100566.84;5052349;28;20045;-60
2022/01/05 11:11:50;;;;;;;9.13;2.50;;;;;;;4.79;96.13;100570.38;5052016;28;20378;-60
2022/01/05 11:14:26;;;;;;;13.43;3.13;;;;;;;4.79;95.17;100565.25;5048751;28;20497;-60
2022/01/05 11:16:52;;;;;;;11.83;2.60;;;;;;;4.76;94.76;100570.25;5045810;28;20227;-59
2022/01/05 11:19:38;;;;;;;10.47;2.50;;;;;;;4.74;94.38;100576.09;5050653;28;20397;-59
2022/01/05 11:22:09;;;;;;;13.80;2.63;;;;;;;4.68;94.81;100581.78;5049547;28;20036;-60